sensor_id;sensor_type;location;lat;lon;timestamp;pressure;altitude;pressure_sealevel;temperature;humidity
16431;BME280;8325;49.284;7.238;2022-12-26T05:04:40;98671.66;;;10.63;90.54
16431;BME280;8325;49.284;7.238;2022-12-26T05:09:10;98674.63;;;10.60;90.84
16431;BME280;8325;49.284;7.238;2022-12-26T05:13:42;98672.22;;;10.50;92.26
16431;BME280;8325;49.284;7.238;2022-12-26T05:17:53;98684.97;;;10.45;93.43
16431;BME280;8325;49.284;7.238;2022-12-26T05:22:23;98690.41;;;10.35;95.10
16431;BME280;8325;49.284;7.238;2022-12-26T05:26:55;98685.19;;;10.35;95.58
16431;BME280;8325;49.284;7.238;2022-12-26T05:31:25;98705.28;;;10.27;97.09
16431;BME280;8325;49.284;7.238;2022-12-26T05:35:46;98709.66;;;10.18;97.73
16431;BME280;8325;49.284;7.238;2022-12-26T05:39:58;98711.97;;;10.13;98.86
16431;BME280;8325;49.284;7.238;2022-12-26T05:44:10;98710.66;;;10.09;100.00
16431;BME280;8325;49.284;7.238;2022-12-26T05:48:21;98705.78;;;10.06;100.00
16431;BME280;8325;49.284;7.238;2022-12-26T05:52:33;98712.31;;;10.02;100.00
16431;BME280;8325;49.284;7.238;2022-12-26T05:56:45;98707.44;;;9.99;100.00
16431;BME280;8325;49.284;7.238;2022-12-26T06:01:09;98712.31;;;9.94;100.00
16431;BME280;8325;49.284;7.238;2022-12-26T06:05:21;98711.69;;;9.91;100.00
16431;BME280;8325;49.284;7.238;2022-12-26T06:09:33;98718.19;;;9.87;100.00
16431;BME280;8325;49.284;7.238;2022-12-26T06:13:44;98711.03;;;9.89;100.00
16431;BME280;8325;49.284;7.238;2022-12-26T06:17:56;98693.09;;;9.78;100.00
16431;BME280;8325;49.284;7.238;2022-12-26T06:22:08;98704.19;;;9.80;100.00
16431;BME280;8325;49.284;7.238;2022-12-26T06:26:19;98705.00;;;9.73;100.00
16431;BME280;8325;49.284;7.238;2022-12-26T06:30:31;98716.63;;;9.70;100.00
16431;BME280;8325;49.284;7.238;2022-12-26T06:34:42;98699.78;;;9.73;100.00
16431;BME280;8325;49.284;7.238;2022-12-26T06:38:54;98713.97;;;9.78;100.00
16431;BME280;8325;49.284;7.238;2022-12-26T06:43:07;98718.38;;;9.86;100.00
16431;BME280;8325;49.284;7.238;2022-12-26T06:47:19;98743.81;;;9.84;100.00
16431;BME280;8325;49.284;7.238;2022-12-26T06:51:31;98742.19;;;9.83;100.00
16431;BME280;8325;49.284;7.238;2022-12-26T06:55:42;98748.88;;;9.85;100.00
16431;BME280;8325;49.284;7.238;2022-12-26T06:59:54;98735.50;;;9.88;100.00
16431;BME280;8325;49.284;7.238;2022-12-26T07:04:05;98752.94;;;9.88;100.00
16431;BME280;8325;49.284;7.238;2022-12-26T07:08:17;98760.28;;;9.84;100.00
16431;BME280;8325;49.284;7.238;2022-12-26T07:12:28;98766.97;;;9.95;100.00
16431;BME280;8325;49.284;7.238;2022-12-26T07:16:42;98767.13;;;9.94;100.00
16431;BME280;8325;49.284;7.238;2022-12-26T07:20:54;98771.38;;;9.95;100.00
16431;BME280;8325;49.284;7.238;2022-12-26T07:25:05;98761.09;;;9.85;100.00
16431;BME280;8325;49.284;7.238;2022-12-26T07:29:17;98769.91;;;9.84;100.00
16431;BME280;8325;49.284;7.238;2022-12-26T07:33:29;98780.19;;;9.85;100.00
16431;BME280;8325;49.284;7.238;2022-12-26T07:37:40;98791.91;;;9.81;100.00
16431;BME280;8325;49.284;7.238;2022-12-26T07:41:53;98794.69;;;9.88;100.00
16431;BME280;8325;49.284;7.238;2022-12-26T07:46:07;98800.75;;;9.88;100.00
16431;BME280;8325;49.284;7.238;2022-12-26T07:50:19;98820.94;;;9.86;100.00
16431;BME280;8325;49.284;7.238;2022-12-26T07:54:31;98824.88;;;9.82;100.00
16431;BME280;8325;49.284;7.238;2022-12-26T07:58:42;98815.38;;;9.81;100.00
16431;BME280;8325;49.284;7.238;2022-12-26T08:02:54;98810.97;;;9.82;100.00
16431;BME280;8325;49.284;7.238;2022-12-26T08:07:11;98813.09;;;9.78;100.00
16431;BME280;8325;49.284;7.238;2022-12-26T08:11:23;98781.31;;;9.75;100.00
16431;BME280;8325;49.284;7.238;2022-12-26T08:15:39;98792.75;;;9.74;100.00
16431;BME280;8325;49.284;7.238;2022-12-26T08:19:51;98778.72;;;9.75;100.00
16431;BME280;8325;49.284;7.238;2022-12-26T08:24:03;98772.34;;;9.69;100.00
16431;BME280;8325;49.284;7.238;2022-12-26T08:28:15;98785.72;;;9.74;100.00
16431;BME280;8325;49.284;7.238;2022-12-26T08:32:26;98794.69;;;9.72;100.00
16431;BME280;8325;49.284;7.238;2022-12-26T08:36:38;98816.38;;;9.64;100.00
16431;BME280;8325;49.284;7.238;2022-12-26T08:40:54;98843.59;;;9.61;100.00
16431;BME280;8325;49.284;7.238;2022-12-26T08:45:06;98842.44;;;9.72;100.00
16431;BME280;8325;49.284;7.238;2022-12-26T08:49:18;98838.22;;;9.71;100.00
16431;BME280;8325;49.284;7.238;2022-12-26T08:53:33;98818.31;;;9.78;100.00
16431;BME280;8325;49.284;7.238;2022-12-26T08:57:46;98819.47;;;9.76;100.00
16431;BME280;8325;49.284;7.238;2022-12-26T09:01:57;98856.81;;;9.76;100.00
16431;BME280;8325;49.284;7.238;2022-12-26T09:06:10;98865.28;;;9.78;100.00
16431;BME280;8325;49.284;7.238;2022-12-26T09:10:22;98876.53;;;9.79;100.00
16431;BME280;8325;49.284;7.238;2022-12-26T09:14:34;98893.66;;;9.81;100.00
16431;BME280;8325;49.284;7.238;2022-12-26T09:18:47;98894.00;;;9.86;100.00
16431;BME280;8325;49.284;7.238;2022-12-26T09:22:58;98879.66;;;9.90;100.00
16431;BME280;8325;49.284;7.238;2022-12-26T09:27:10;98884.06;;;9.90;100.00
16431;BME280;8325;49.284;7.238;2022-12-26T09:31:24;98879.50;;;9.92;100.00
16431;BME280;8325;49.284;7.238;2022-12-26T09:35:39;98876.38;;;9.97;100.00
16431;BME280;8325;49.284;7.238;2022-12-26T09:39:51;98882.94;;;10.01;100.00
16431;BME280;8325;49.284;7.238;2022-12-26T09:48:39;98877.06;;;9.99;100.00
16431;BME280;8325;49.284;7.238;2022-12-26T09:52:58;98892.72;;;9.99;100.00
16431;BME280;8325;49.284;7.238;2022-12-26T09:57:16;98895.97;;;10.09;100.00
16431;BME280;8325;49.284;7.238;2022-12-26T10:01:32;98916.22;;;10.07;100.00
16431;BME280;8325;49.284;7.238;2022-12-26T10:10:35;98907.41;;;10.16;100.00
16431;BME280;8325;49.284;7.238;2022-12-26T10:14:57;98913.13;;;10.20;100.00
16431;BME280;8325;49.284;7.238;2022-12-26T10:19:43;98906.91;;;10.21;100.00
16431;BME280;8325;49.284;7.238;2022-12-26T10:24:07;98916.72;;;10.10;100.00
16431;BME280;8325;49.284;7.238;2022-12-26T10:32:41;98900.38;;;10.25;100.00
16431;BME280;8325;49.284;7.238;2022-12-26T10:41:41;98892.44;;;10.34;100.00
16431;BME280;8325;49.284;7.238;2022-12-26T10:46:05;98907.44;;;10.41;100.00
16431;BME280;8325;49.284;7.238;2022-12-26T10:50:33;98909.22;;;10.40;100.00
16431;BME280;8325;49.284;7.238;2022-12-26T10:54:52;98913.16;;;10.36;100.00
16431;BME280;8325;49.284;7.238;2022-12-26T10:59:49;98915.91;;;10.43;100.00
16431;BME280;8325;49.284;7.238;2022-12-26T11:04:04;98921.63;;;10.46;100.00
16431;BME280;8325;49.284;7.238;2022-12-26T11:08:47;98913.47;;;10.57;100.00
16431;BME280;8325;49.284;7.238;2022-12-26T11:13:00;98921.31;;;10.66;100.00
16431;BME280;8325;49.284;7.238;2022-12-26T11:17:28;98910.66;;;10.75;100.00
16431;BME280;8325;49.284;7.238;2022-12-26T11:21:41;98907.22;;;10.83;100.00
16431;BME280;8325;49.284;7.238;2022-12-26T11:25:58;98909.00;;;10.91;98.47
16431;BME280;8325;49.284;7.238;2022-12-26T11:34:39;98917.31;;;10.94;95.56
16431;BME280;8325;49.284;7.238;2022-12-26T11:38:59;98906.34;;;10.99;95.83
16431;BME280;8325;49.284;7.238;2022-12-26T11:43:14;98901.78;;;11.01;96.63
16431;BME280;8325;49.284;7.238;2022-12-26T11:47:28;98901.31;;;10.97;94.82
16431;BME280;8325;49.284;7.238;2022-12-26T11:51:43;98906.06;;;10.94;95.43
16431;BME280;8325;49.284;7.238;2022-12-26T11:55:59;98893.00;;;10.94;95.22
16431;BME280;8325;49.284;7.238;2022-12-26T12:00:19;98896.28;;;10.88;95.32
16431;BME280;8325;49.284;7.238;2022-12-26T12:04:32;98891.34;;;10.93;95.19
16431;BME280;8325;49.284;7.238;2022-12-26T12:13:13;98881.38;;;10.96;94.52
16431;BME280;8325;49.284;7.238;2022-12-26T12:17:37;98885.16;;;10.94;93.79
16431;BME280;8325;49.284;7.238;2022-12-26T12:22:03;98884.16;;;10.95;93.04
16431;BME280;8325;49.284;7.238;2022-12-26T12:26:56;98884.00;;;10.96;92.93
16431;BME280;8325;49.284;7.238;2022-12-26T12:31:25;98891.00;;;10.96;93.32
16431;BME280;8325;49.284;7.238;2022-12-26T12:49:16;98877.31;;;10.94;92.82
16431;BME280;8325;49.284;7.238;2022-12-26T13:03:49;98897.63;;;10.67;98.05
16431;BME280;8325;49.284;7.238;2022-12-26T13:08:09;98894.19;;;10.58;97.41
16431;BME280;8325;49.284;7.238;2022-12-26T13:12:36;98886.88;;;10.54;96.93
16431;BME280;8325;49.284;7.238;2022-12-26T13:16:55;98886.22;;;10.60;97.35
16431;BME280;8325;49.284;7.238;2022-12-26T13:21:10;98873.78;;;10.62;97.23
16431;BME280;8325;49.284;7.238;2022-12-26T13:25:25;98870.19;;;10.55;97.18
16431;BME280;8325;49.284;7.238;2022-12-26T13:29:40;98876.56;;;10.52;96.78
16431;BME280;8325;49.284;7.238;2022-12-26T13:33:51;98866.31;;;10.51;96.86
16431;BME280;8325;49.284;7.238;2022-12-26T13:38:04;98869.53;;;10.53;96.75
16431;BME280;8325;49.284;7.238;2022-12-26T13:42:18;98865.97;;;10.54;95.96
16431;BME280;8325;49.284;7.238;2022-12-26T13:46:56;98859.75;;;10.55;96.07
16431;BME280;8325;49.284;7.238;2022-12-26T13:51:41;98843.09;;;10.56;95.61
16431;BME280;8325;49.284;7.238;2022-12-26T13:56:01;98844.41;;;10.60;95.14
16431;BME280;8325;49.284;7.238;2022-12-26T14:00:23;98851.59;;;10.58;94.84
16431;BME280;8325;49.284;7.238;2022-12-26T14:05:05;98841.47;;;10.55;93.97
16431;BME280;8325;49.284;7.238;2022-12-26T14:18:30;98837.88;;;10.56;93.57
16431;BME280;8325;49.284;7.238;2022-12-26T14:23:19;98844.94;;;10.47;93.28
16431;BME280;8325;49.284;7.238;2022-12-26T14:27:43;98849.69;;;10.44;93.32
16431;BME280;8325;49.284;7.238;2022-12-26T14:32:58;98850.47;;;10.44;93.30
16431;BME280;8325;49.284;7.238;2022-12-26T14:37:17;98845.06;;;10.46;93.23
16431;BME280;8325;49.284;7.238;2022-12-26T14:50:51;98868.44;;;10.39;94.23
16431;BME280;8325;49.284;7.238;2022-12-26T15:05:06;98860.78;;;10.38;93.92
16431;BME280;8325;49.284;7.238;2022-12-26T15:19:07;98875.13;;;10.25;96.21
16431;BME280;8325;49.284;7.238;2022-12-26T15:28:24;98879.03;;;10.13;100.00
16431;BME280;8325;49.284;7.238;2022-12-26T15:42:14;98926.81;;;10.05;99.94
16431;BME280;8325;49.284;7.238;2022-12-26T15:46:40;98953.38;;;9.93;97.50
16431;BME280;8325;49.284;7.238;2022-12-26T15:51:07;98986.53;;;9.66;94.84
16431;BME280;8325;49.284;7.238;2022-12-26T15:55:57;98975.94;;;9.59;95.14
16431;BME280;8325;49.284;7.238;2022-12-26T16:04:46;98968.13;;;9.25;96.02
16431;BME280;8325;49.284;7.238;2022-12-26T16:14:00;98956.63;;;9.10;96.67
16431;BME280;8325;49.284;7.238;2022-12-26T16:18:35;98943.53;;;9.02;96.92
16431;BME280;8325;49.284;7.238;2022-12-26T16:22:46;98956.53;;;8.93;96.40
16431;BME280;8325;49.284;7.238;2022-12-26T16:27:02;98954.94;;;9.01;96.21
16431;BME280;8325;49.284;7.238;2022-12-26T16:31:25;98951.34;;;8.93;95.44
16431;BME280;8325;49.284;7.238;2022-12-26T16:35:38;98960.88;;;8.85;95.43
16431;BME280;8325;49.284;7.238;2022-12-26T16:44:39;99015.06;;;8.81;96.06
16431;BME280;8325;49.284;7.238;2022-12-26T16:48:59;99033.00;;;8.84;96.03
16431;BME280;8325;49.284;7.238;2022-12-26T16:53:16;99037.53;;;8.82;97.56
16431;BME280;8325;49.284;7.238;2022-12-26T16:57:28;99037.16;;;8.77;97.39
16431;BME280;8325;49.284;7.238;2022-12-26T17:01:40;99056.06;;;8.79;96.89
16431;BME280;8325;49.284;7.238;2022-12-26T17:05:52;99063.19;;;8.77;96.26
16431;BME280;8325;49.284;7.238;2022-12-26T17:10:04;99069.09;;;8.79;94.58
16431;BME280;8325;49.284;7.238;2022-12-26T17:14:26;99077.72;;;8.62;94.95
16431;BME280;8325;49.284;7.238;2022-12-26T17:22:51;99102.03;;;8.52;95.44
16431;BME280;8325;49.284;7.238;2022-12-26T17:27:19;99097.50;;;8.55;95.06
16431;BME280;8325;49.284;7.238;2022-12-26T17:31:37;99109.09;;;8.42;95.74
16431;BME280;8325;49.284;7.238;2022-12-26T17:35:52;99116.91;;;8.42;95.89
16431;BME280;8325;49.284;7.238;2022-12-26T17:40:29;99105.03;;;8.30;95.22
16431;BME280;8325;49.284;7.238;2022-12-26T17:44:44;99109.53;;;8.28;96.96
16431;BME280;8325;49.284;7.238;2022-12-26T17:48:56;99107.78;;;8.28;96.04
16431;BME280;8325;49.284;7.238;2022-12-26T17:53:24;99115.63;;;8.19;97.09
16431;BME280;8325;49.284;7.238;2022-12-26T17:57:36;99116.66;;;8.08;96.54
16431;BME280;8325;49.284;7.238;2022-12-26T18:01:48;99115.16;;;8.05;96.77
16431;BME280;8325;49.284;7.238;2022-12-26T18:06:00;99122.25;;;8.03;96.68
16431;BME280;8325;49.284;7.238;2022-12-26T18:10:17;99137.31;;;8.10;95.88
16431;BME280;8325;49.284;7.238;2022-12-26T18:14:29;99129.69;;;7.98;96.31
16431;BME280;8325;49.284;7.238;2022-12-26T18:18:43;99138.06;;;7.92;96.03
16431;BME280;8325;49.284;7.238;2022-12-26T18:22:55;99144.09;;;7.93;96.38
16431;BME280;8325;49.284;7.238;2022-12-26T18:27:15;99148.34;;;7.84;96.51
16431;BME280;8325;49.284;7.238;2022-12-26T18:31:27;99149.34;;;7.83;97.23
16431;BME280;8325;49.284;7.238;2022-12-26T18:35:40;99156.88;;;7.76;97.26
16431;BME280;8325;49.284;7.238;2022-12-26T18:39:53;99174.56;;;7.73;98.17
16431;BME280;8325;49.284;7.238;2022-12-26T18:44:04;99193.28;;;7.76;97.96
16431;BME280;8325;49.284;7.238;2022-12-26T18:48:16;99206.69;;;7.72;98.35
16431;BME280;8325;49.284;7.238;2022-12-26T18:52:27;99210.53;;;7.77;98.21
16431;BME280;8325;49.284;7.238;2022-12-26T18:56:39;99220.66;;;7.71;97.90
16431;BME280;8325;49.284;7.238;2022-12-26T19:00:50;99222.03;;;7.75;97.16
16431;BME280;8325;49.284;7.238;2022-12-26T19:05:02;99238.47;;;7.66;97.49
16431;BME280;8325;49.284;7.238;2022-12-26T19:09:15;99241.59;;;7.59;97.75
16431;BME280;8325;49.284;7.238;2022-12-26T19:13:27;99252.44;;;7.55;97.68
16431;BME280;8325;49.284;7.238;2022-12-26T19:17:39;99259.28;;;7.46;96.57
16431;BME280;8325;49.284;7.238;2022-12-26T19:21:51;99267.72;;;7.38;96.51
16431;BME280;8325;49.284;7.238;2022-12-26T19:26:14;99277.03;;;7.41;95.94
16431;BME280;8325;49.284;7.238;2022-12-26T19:30:26;99292.91;;;7.38;95.35
16431;BME280;8325;49.284;7.238;2022-12-26T19:34:38;99293.72;;;7.29;95.20
16431;BME280;8325;49.284;7.238;2022-12-26T19:38:52;99300.97;;;7.35;95.62
16431;BME280;8325;49.284;7.238;2022-12-26T19:43:04;99317.53;;;7.24;95.17
16431;BME280;8325;49.284;7.238;2022-12-26T19:47:15;99328.72;;;7.25;95.74
16431;BME280;8325;49.284;7.238;2022-12-26T19:51:27;99329.44;;;7.27;95.57
16431;BME280;8325;49.284;7.238;2022-12-26T19:55:39;99342.00;;;7.22;95.72
16431;BME280;8325;49.284;7.238;2022-12-26T19:59:50;99346.50;;;7.20;96.06
16431;BME280;8325;49.284;7.238;2022-12-26T20:04:49;99364.56;;;7.21;95.83
16431;BME280;8325;49.284;7.238;2022-12-26T20:16:36;99379.47;;;7.29;94.23
16431;BME280;8325;49.284;7.238;2022-12-26T20:21:30;99384.25;;;7.24;94.49
16431;BME280;8325;49.284;7.238;2022-12-26T20:26:00;99393.53;;;7.17;93.37
16431;BME280;8325;49.284;7.238;2022-12-26T20:30:54;99409.91;;;7.07;90.33
16431;BME280;8325;49.284;7.238;2022-12-26T20:35:23;99417.53;;;6.99;88.47
16431;BME280;8325;49.284;7.238;2022-12-26T20:39:34;99427.84;;;6.89;87.31
16431;BME280;8325;49.284;7.238;2022-12-26T20:43:47;99436.59;;;6.88;85.01
16431;BME280;8325;49.284;7.238;2022-12-26T20:47:59;99429.22;;;6.84;85.43
16431;BME280;8325;49.284;7.238;2022-12-26T20:52:10;99434.06;;;6.77;85.09
16431;BME280;8325;49.284;7.238;2022-12-26T20:56:22;99437.00;;;6.63;84.55
16431;BME280;8325;49.284;7.238;2022-12-26T21:00:35;99453.91;;;6.57;83.80
16431;BME280;8325;49.284;7.238;2022-12-26T21:05:08;99458.22;;;6.47;84.12
16431;BME280;8325;49.284;7.238;2022-12-26T21:09:38;99477.56;;;6.43;83.65
16431;BME280;8325;49.284;7.238;2022-12-26T21:19:23;99510.66;;;6.30;83.03
16431;BME280;8325;49.284;7.238;2022-12-26T21:23:45;99528.25;;;6.26;82.23
16431;BME280;8325;49.284;7.238;2022-12-26T21:28:24;99529.53;;;6.20;83.57
16431;BME280;8325;49.284;7.238;2022-12-26T21:38:16;99552.91;;;6.09;80.36
16431;BME280;8325;49.284;7.238;2022-12-26T21:42:30;99552.72;;;6.01;80.88
16431;BME280;8325;49.284;7.238;2022-12-26T21:46:42;99558.81;;;5.89;80.72
16431;BME280;8325;49.284;7.238;2022-12-26T21:50:53;99566.81;;;5.74;79.07
16431;BME280;8325;49.284;7.238;2022-12-26T21:55:05;99583.78;;;5.78;78.83
16431;BME280;8325;49.284;7.238;2022-12-26T21:59:36;99596.63;;;5.69;78.41
16431;BME280;8325;49.284;7.238;2022-12-26T22:04:09;99603.56;;;5.57;77.48
16431;BME280;8325;49.284;7.238;2022-12-26T22:08:31;99602.97;;;5.53;78.82
16431;BME280;8325;49.284;7.238;2022-12-26T22:12:42;99608.88;;;5.56;77.68
16431;BME280;8325;49.284;7.238;2022-12-26T22:17:09;99623.34;;;5.47;78.04
16431;BME280;8325;49.284;7.238;2022-12-26T22:21:21;99621.44;;;5.38;77.27
16431;BME280;8325;49.284;7.238;2022-12-26T22:25:33;99635.34;;;5.37;78.77
16431;BME280;8325;49.284;7.238;2022-12-26T22:29:44;99649.00;;;5.27;80.36
